Time;durP1;ratioP1;P1;durP2;ratioP2;P2;SDS_P1;SDS_P2;PMS_P1;PMS_P2;Temp;Humidity;BMP_temperature;BMP_pressure;BME280_temperature;BME280_humidity;BME280_pressure;Samples;Min_cycle;Max_cycle;Signal;HPM_P1;HPM_P2
2022/02/18 00:02:14;;;;;;;16.42;4.40;;;12.90;89.30;;;;;;5060307;28;20599;-44
2022/02/18 00:04:40;;;;;;;19.33;4.50;;;12.90;88.80;;;;;;5059899;28;20053;-44
2022/02/18 00:07:06;;;;;;;20.35;4.47;;;12.90;88.70;;;;;;5059940;28;20021;-44
2022/02/18 00:09:31;;;;;;;16.05;3.80;;;12.90;88.50;;;;;;5059743;28;20128;-44
2022/02/18 00:11:57;;;;;;;16.75;4.07;;;13.00;89.00;;;;;;5059765;28;20037;-44
2022/02/18 00:14:23;;;;;;;16.95;3.92;;;12.90;88.60;;;;;;5059695;28;20043;-44
2022/02/18 00:16:49;;;;;;;16.67;3.95;;;12.90;88.70;;;;;;5059667;28;20025;-44
2022/02/18 00:19:14;;;;;;;27.73;4.75;;;12.90;89.10;;;;;;5059827;28;20025;-44
2022/02/18 00:21:40;;;;;;;21.05;4.15;;;12.90;89.00;;;;;;5059711;28;20116;-44
2022/02/18 00:24:06;;;;;;;17.60;4.15;;;13.00;90.10;;;;;;5059550;28;20033;-44
2022/02/18 00:26:32;;;;;;;17.75;4.20;;;13.00;89.40;;;;;;5059275;28;20386;-43
2022/02/18 00:28:58;;;;;;;22.02;4.45;;;13.00;89.50;;;;;;5059684;28;20072;-44
2022/02/18 00:31:24;;;;;;;16.40;4.10;;;12.90;88.50;;;;;;5059308;28;20396;-44
2022/02/18 00:33:50;;;;;;;20.67;4.40;;;13.00;89.10;;;;;;5059149;28;20021;-44
2022/02/18 00:36:15;;;;;;;17.17;3.90;;;13.00;88.80;;;;;;5059309;28;20032;-44
2022/02/18 00:38:41;;;;;;;16.90;4.28;;;13.00;89.40;;;;;;5059245;28;20029;-44
2022/02/18 00:41:08;;;;;;;22.35;4.75;;;13.00;88.50;;;;;;5058241;28;20033;-44
2022/02/18 00:43:35;;;;;;;17.20;3.97;;;13.00;89.20;;;;;;5058985;28;20396;-44
2022/02/18 00:46:01;;;;;;;15.55;3.70;;;13.00;88.80;;;;;;5059351;28;20068;-44
2022/02/18 00:48:27;;;;;;;16.20;4.20;;;13.00;89.20;;;;;;5059284;28;20029;-44
2022/02/18 00:50:52;;;;;;;15.68;4.30;;;12.90;89.60;;;;;;5059404;28;20033;-44
2022/02/18 00:53:19;;;;;;;17.67;3.90;;;12.90;89.30;;;;;;5059146;28;20517;-45
2022/02/18 00:55:44;;;;;;;13.27;3.92;;;12.90;89.80;;;;;;5059248;28;20013;-44
2022/02/18 00:58:11;;;;;;;15.68;3.28;;;12.90;88.90;;;;;;5058797;28;20032;-44
2022/02/18 01:00:37;;;;;;;13.70;3.63;;;12.90;89.10;;;;;;5059283;28;20384;-44
2022/02/18 01:03:03;;;;;;;14.70;3.20;;;12.90;90.50;;;;;;5059192;28;20032;-44
2022/02/18 01:05:29;;;;;;;16.85;3.80;;;12.90;89.50;;;;;;5057316;28;20025;-44
2022/02/18 01:07:54;;;;;;;15.02;3.90;;;12.90;89.20;;;;;;5059061;28;20031;-44
2022/02/18 01:10:20;;;;;;;15.63;3.58;;;12.90;89.80;;;;;;5058573;28;20029;-44
2022/02/18 01:12:46;;;;;;;13.90;3.60;;;12.90;90.40;;;;;;5058639;28;20024;-44
2022/02/18 01:15:12;;;;;;;19.48;4.18;;;12.90;90.20;;;;;;5058936;28;20025;-44
2022/02/18 01:17:38;;;;;;;17.08;4.28;;;12.90;89.40;;;;;;5058521;28;20025;-44
2022/02/18 01:20:04;;;;;;;19.52;4.55;;;12.90;89.80;;;;;;5058648;28;20096;-45
2022/02/18 01:22:30;;;;;;;22.88;4.10;;;12.90;90.10;;;;;;5058318;28;20115;-44
2022/02/18 01:24:56;;;;;;;18.05;4.15;;;12.90;90.00;;;;;;5058303;28;20516;-44
2022/02/18 01:27:22;;;;;;;19.63;5.32;;;12.80;89.80;;;;;;5058697;28;20024;-45
2022/02/18 01:29:47;;;;;;;18.88;4.72;;;12.80;90.30;;;;;;5058320;28;20469;-44
2022/02/18 01:32:13;;;;;;;21.27;5.03;;;12.80;90.10;;;;;;5057776;28;20029;-44
2022/02/18 01:34:40;;;;;;;21.25;4.90;;;12.80;88.90;;;;;;5058265;28;20100;-44
2022/02/18 01:37:06;;;;;;;19.73;4.00;;;12.80;89.60;;;;;;5058198;28;20025;-44
2022/02/18 01:39:32;;;;;;;19.95;4.63;;;12.80;90.20;;;;;;5058153;28;20092;-44
2022/02/18 01:41:58;;;;;;;25.33;4.82;;;12.80;90.10;;;;;;5058279;28;20032;-44
2022/02/18 01:44:41;;;;;;;22.30;4.30;;;12.80;90.10;;;;;;5058085;28;20385;-44
2022/02/18 01:47:13;;;;;;;23.05;5.00;;;12.80;90.20;;;;;;5058236;28;20100;-44
2022/02/18 01:49:39;;;;;;;21.02;4.85;;;12.80;90.00;;;;;;5058128;28;20096;-44
2022/02/18 01:52:07;;;;;;;25.10;5.78;;;12.80;89.90;;;;;;5058085;28;20116;-44
2022/02/18 01:54:33;;;;;;;22.35;4.95;;;12.80;90.10;;;;;;5057997;28;20028;-44
2022/02/18 01:56:59;;;;;;;22.10;5.10;;;12.70;90.30;;;;;;5057852;28;20093;-44
2022/02/18 01:59:29;;;;;;;20.48;4.38;;;12.70;90.20;;;;;;5057630;28;20025;-44
2022/02/18 02:01:58;;;;;;;19.13;5.78;;;12.70;90.00;;;;;;5057722;28;20447;-44
2022/02/18 02:04:27;;;;;;;21.38;4.95;;;12.70;90.30;;;;;;5057781;28;20021;-44
2022/02/18 02:06:58;;;;;;;20.60;4.90;;;12.70;90.30;;;;;;5057705;28;20515;-44
2022/02/18 02:09:25;;;;;;;22.70;5.93;;;12.70;90.40;;;;;;5058176;28;20424;-43
2022/02/18 02:11:51;;;;;;;18.38;4.47;;;12.70;90.40;;;;;;5057572;28;20040;-43
2022/02/18 02:14:16;;;;;;;19.33;4.22;;;12.70;90.50;;;;;;5057686;28;20590;-43
2022/02/18 02:16:42;;;;;;;22.38;5.50;;;12.70;90.20;;;;;;5057838;28;20453;-44
2022/02/18 02:19:08;;;;;;;22.33;5.40;;;12.70;90.60;;;;;;5057568;28;20024;-44
2022/02/18 02:21:34;;;;;;;21.65;5.07;;;12.70;90.40;;;;;;5055990;28;20158;-44
2022/02/18 02:24:00;;;;;;;26.23;6.32;;;12.70;89.70;;;;;;5057511;28;20095;-44
2022/02/18 02:26:26;;;;;;;20.85;6.25;;;12.70;90.50;;;;;;5057585;28;20028;-43
2022/02/18 02:28:52;;;;;;;21.50;4.88;;;12.70;90.80;;;;;;5057450;28;20027;-44
2022/02/18 02:31:21;;;;;;;23.55;5.03;;;12.70;90.50;;;;;;5057637;28;20025;-43
2022/02/18 02:33:47;;;;;;;23.15;5.85;;;12.70;90.20;;;;;;5057712;28;20096;-44
2022/02/18 02:36:13;;;;;;;28.20;6.50;;;12.70;90.40;;;;;;5057709;28;20063;-44
2022/02/18 02:38:39;;;;;;;21.17;5.05;;;12.70;90.90;;;;;;5057601;28;20420;-44
2022/02/18 02:41:04;;;;;;;23.30;5.60;;;12.70;90.40;;;;;;5057741;28;20049;-44
2022/02/18 02:43:30;;;;;;;23.95;5.65;;;12.60;90.70;;;;;;5057784;28;20021;-44
2022/02/18 02:45:56;;;;;;;24.27;5.38;;;12.60;90.30;;;;;;5059845;28;20033;-44
2022/02/18 02:48:22;;;;;;;21.58;5.15;;;12.70;90.70;;;;;;5061532;28;20020;-44
2022/02/18 02:50:48;;;;;;;22.25;4.65;;;12.70;90.70;;;;;;5061243;28;20033;-44
2022/02/18 02:53:13;;;;;;;23.20;5.80;;;12.70;90.40;;;;;;5061214;28;20029;-44
2022/02/18 02:55:39;;;;;;;21.17;5.25;;;12.70;91.00;;;;;;5061157;28;20021;-44
2022/02/18 02:58:05;;;;;;;22.58;5.85;;;12.70;90.60;;;;;;5061406;28;20419;-44
2022/02/18 03:00:31;;;;;;;19.30;5.03;;;12.70;90.70;;;;;;5061388;28;20431;-44
2022/02/18 03:02:57;;;;;;;22.90;5.43;;;12.70;90.80;;;;;;5060886;28;20033;-44
2022/02/18 03:05:23;;;;;;;23.75;4.70;;;12.70;90.60;;;;;;5061211;28;20415;-44
2022/02/18 03:07:49;;;;;;;23.23;6.13;;;12.70;91.10;;;;;;5060777;28;20122;-44
2022/02/18 03:10:15;;;;;;;23.27;4.85;;;12.70;90.90;;;;;;5060804;28;20508;-43
2022/02/18 03:12:41;;;;;;;25.48;6.28;;;12.70;90.60;;;;;;5061341;28;20131;-44
2022/02/18 03:15:07;;;;;;;21.60;4.30;;;12.70;90.60;;;;;;5061032;28;20025;-44
2022/02/18 03:17:33;;;;;;;19.20;5.22;;;12.70;90.60;;;;;;5061126;28;20023;-43
2022/02/18 03:19:59;;;;;;;20.80;5.50;;;12.80;90.30;;;;;;5060736;28;20112;-44
2022/02/18 03:22:24;;;;;;;21.35;5.20;;;12.70;90.70;;;;;;5059563;28;20057;-44
2022/02/18 03:24:50;;;;;;;24.50;5.80;;;12.70;90.30;;;;;;5060229;28;20380;-44
2022/02/18 03:27:16;;;;;;;21.40;5.10;;;12.70;90.60;;;;;;5060422;28;20033;-49
2022/02/18 03:29:42;;;;;;;24.35;4.80;;;12.70;90.70;;;;;;5060313;28;20080;-44
2022/02/18 03:32:08;;;;;;;27.23;5.60;;;12.70;90.60;;;;;;5059784;28;20029;-45
2022/02/18 03:34:34;;;;;;;21.38;5.90;;;12.70;90.40;;;;;;5060272;28;20472;-45
2022/02/18 03:37:00;;;;;;;16.88;4.47;;;12.80;90.40;;;;;;5059751;28;20062;-44
2022/02/18 03:39:26;;;;;;;22.58;5.55;;;12.80;90.60;;;;;;5060185;28;20060;-44
2022/02/18 03:41:52;;;;;;;22.08;5.68;;;12.80;90.90;;;;;;5059896;28;20036;-45
2022/02/18 03:44:18;;;;;;;18.67;4.65;;;12.80;91.00;;;;;;5060159;28;20033;-47
2022/02/18 03:46:43;;;;;;;19.52;5.43;;;12.80;90.80;;;;;;5059852;28;20111;-45
2022/02/18 03:49:09;;;;;;;22.10;5.53;;;12.80;90.50;;;;;;5060176;28;20017;-44
2022/02/18 03:51:35;;;;;;;24.02;5.90;;;12.80;90.70;;;;;;5059657;28;20032;-47
2022/02/18 03:54:01;;;;;;;17.70;4.93;;;12.80;90.70;;;;;;5059868;28;20021;-48
2022/02/18 03:56:27;;;;;;;21.83;5.97;;;12.70;90.60;;;;;;5059142;28;20040;-45
2022/02/18 03:58:52;;;;;;;24.50;4.88;;;12.80;90.90;;;;;;5059866;28;20029;-44
2022/02/18 04:01:18;;;;;;;19.10;4.70;;;12.80;90.90;;;;;;5059729;28;20108;-44
2022/02/18 04:03:44;;;;;;;24.33;5.45;;;12.80;90.80;;;;;;5060030;28;20542;-47
2022/02/18 04:06:11;;;;;;;21.45;5.35;;;12.80;90.90;;;;;;5059571;28;20031;-47
2022/02/18 04:08:38;;;;;;;23.65;5.88;;;12.80;90.60;;;;;;5059554;28;20029;-46
2022/02/18 04:11:04;;;;;;;20.92;5.38;;;12.70;91.00;;;;;;5059390;28;20036;-44
2022/02/18 04:13:29;;;;;;;22.25;5.40;;;12.80;90.30;;;;;;5059447;28;20056;-44
2022/02/18 04:15:55;;;;;;;21.08;5.13;;;12.80;90.70;;;;;;5059617;28;20025;-44
2022/02/18 04:18:21;;;;;;;21.90;5.25;;;12.80;90.50;;;;;;5059287;28;20014;-45
2022/02/18 04:20:47;;;;;;;21.95;5.68;;;12.80;90.80;;;;;;5059300;28;20040;-45
2022/02/18 04:23:12;;;;;;;18.23;4.68;;;12.80;90.80;;;;;;5059599;28;20504;-45
2022/02/18 04:25:38;;;;;;;22.35;5.25;;;12.80;90.60;;;;;;5059200;28;20076;-46
2022/02/18 04:28:05;;;;;;;25.17;6.07;;;12.80;91.00;;;;;;5059246;28;20028;-44
2022/02/18 04:30:32;;;;;;;23.50;5.35;;;12.80;90.60;;;;;;5059040;28;20055;-44
2022/02/18 04:32:58;;;;;;;20.67;5.75;;;12.80;90.90;;;;;;5058898;28;20025;-45
2022/02/18 04:35:24;;;;;;;24.58;5.57;;;12.80;90.70;;;;;;5059032;28;20025;-44
2022/02/18 04:37:50;;;;;;;20.25;4.55;;;12.70;90.40;;;;;;5059198;28;20052;-46
2022/02/18 04:40:16;;;;;;;23.77;5.65;;;12.80;90.50;;;;;;5058889;28;20096;-44
2022/02/18 04:42:43;;;;;;;21.60;5.10;;;12.80;90.90;;;;;;5059097;28;20016;-44
2022/02/18 04:45:09;;;;;;;24.13;5.68;;;12.80;90.50;;;;;;5059259;28;20420;-44
2022/02/18 04:47:35;;;;;;;25.88;5.45;;;12.70;90.60;;;;;;5059230;28;20017;-45
2022/02/18 04:50:03;;;;;;;22.48;5.82;;;12.80;90.60;;;;;;5058871;28;20043;-44
2022/02/18 04:52:28;;;;;;;22.35;4.82;;;12.80;90.40;;;;;;5059147;28;20024;-44
2022/02/18 04:54:54;;;;;;;24.55;5.07;;;12.70;90.60;;;;;;5058614;28;20492;-47
2022/02/18 04:57:20;;;;;;;24.58;6.80;;;12.80;90.30;;;;;;5058828;28;20112;-46
2022/02/18 04:59:46;;;;;;;25.20;5.80;;;12.80;90.80;;;;;;5058403;28;20428;-46
2022/02/18 05:02:13;;;;;;;27.00;5.55;;;12.80;91.00;;;;;;5058535;28;20074;-45
2022/02/18 05:04:40;;;;;;;26.63;5.15;;;12.80;90.40;;;;;;5058231;28;20028;-45
2022/02/18 05:07:06;;;;;;;21.75;5.45;;;12.80;90.60;;;;;;5057918;28;20397;-45
2022/02/18 05:09:33;;;;;;;26.92;5.75;;;12.80;90.90;;;;;;5058147;28;20359;-45
2022/02/18 05:11:58;;;;;;;24.48;5.53;;;12.70;90.90;;;;;;5058408;28;20033;-45
2022/02/18 05:14:24;;;;;;;25.42;6.35;;;12.80;91.10;;;;;;5058490;28;20031;-44
2022/02/18 05:16:50;;;;;;;23.95;6.30;;;12.80;91.40;;;;;;5058389;28;20028;-45
2022/02/18 05:19:16;;;;;;;23.08;5.65;;;12.80;91.40;;;;;;5058161;28;20033;-44
2022/02/18 05:21:42;;;;;;;24.80;5.60;;;12.70;91.30;;;;;;5058276;28;20044;-44
2022/02/18 05:24:08;;;;;;;26.33;5.80;;;12.70;91.40;;;;;;5058076;28;20036;-44
2022/02/18 05:26:34;;;;;;;27.83;5.53;;;12.70;91.30;;;;;;5058499;28;20361;-45
2022/02/18 05:29:01;;;;;;;21.35;5.32;;;12.70;91.50;;;;;;5058412;28;20091;-44
2022/02/18 05:31:26;;;;;;;20.92;5.40;;;12.70;91.20;;;;;;5057960;28;20017;-44
2022/02/18 05:33:52;;;;;;;22.10;5.00;;;12.70;91.50;;;;;;5058106;28;20032;-45
2022/02/18 05:36:18;;;;;;;20.05;5.63;;;12.70;91.50;;;;;;5056446;28;20412;-44
2022/02/18 05:38:45;;;;;;;25.05;5.78;;;12.70;92.00;;;;;;5057825;28;20063;-47
2022/02/18 05:41:11;;;;;;;23.48;6.13;;;12.70;91.50;;;;;;5057641;28;20404;-45
2022/02/18 05:43:37;;;;;;;23.92;5.57;;;12.70;91.60;;;;;;5058138;28;20108;-44
2022/02/18 05:46:04;;;;;;;19.63;4.60;;;12.70;91.50;;;;;;5057875;28;20124;-44
2022/02/18 05:48:31;;;;;;;22.55;4.55;;;12.70;90.40;;;;;;5057875;28;20037;-44
2022/02/18 05:50:57;;;;;;;29.88;5.53;;;12.60;90.00;;;;;;5057727;28;20049;-44
2022/02/18 05:53:23;;;;;;;26.55;5.57;;;12.50;89.50;;;;;;5057562;28;20025;-44
2022/02/18 05:55:49;;;;;;;21.85;5.13;;;12.50;88.90;;;;;;5057541;28;20096;-44
2022/02/18 05:58:15;;;;;;;20.65;5.10;;;12.40;89.40;;;;;;5057513;28;20021;-44
2022/02/18 06:00:41;;;;;;;25.95;5.43;;;12.30;89.40;;;;;;5057110;28;20025;-46
2022/02/18 06:03:06;;;;;;;17.30;5.03;;;12.30;88.80;;;;;;5057398;28;20021;-44
2022/02/18 06:05:32;;;;;;;20.67;4.63;;;12.20;89.10;;;;;;5055956;28;20033;-45
2022/02/18 06:07:58;;;;;;;21.48;5.15;;;12.20;89.20;;;;;;5057348;28;20115;-44
2022/02/18 06:10:23;;;;;;;19.48;4.80;;;12.10;89.40;;;;;;5057310;28;20032;-43
2022/02/18 06:12:50;;;;;;;18.17;4.97;;;12.10;89.40;;;;;;5057306;28;20033;-44
2022/02/18 06:15:16;;;;;;;20.83;4.43;;;12.10;89.40;;;;;;5057360;28;20074;-46
2022/02/18 06:17:42;;;;;;;23.73;8.52;;;12.00;89.80;;;;;;5057225;28;20040;-46
2022/02/18 06:20:09;;;;;;;26.20;8.70;;;12.00;89.30;;;;;;5057074;28;20017;-43
2022/02/18 06:22:36;;;;;;;23.65;8.50;;;12.00;88.10;;;;;;5056888;28;20175;-45
2022/02/18 06:25:06;;;;;;;20.10;7.32;;;11.90;86.30;;;;;;5057050;28;20025;-45
2022/02/18 06:27:32;;;;;;;22.80;6.10;;;11.90;86.70;;;;;;5057167;28;20032;-46
2022/02/18 06:29:58;;;;;;;27.92;8.88;;;11.80;85.50;;;;;;5057155;28;20051;-44
2022/02/18 06:32:23;;;;;;;22.83;6.28;;;11.80;85.30;;;;;;5057119;28;20056;-43
2022/02/18 06:34:52;;;;;;;21.45;5.55;;;11.70;85.20;;;;;;5057134;28;20021;-43
2022/02/18 06:37:18;;;;;;;24.60;5.30;;;11.70;85.70;;;;;;5057054;28;20017;-43
2022/02/18 06:39:44;;;;;;;26.05;5.10;;;11.60;84.30;;;;;;5057278;28;20017;-43
2022/02/18 06:42:10;;;;;;;19.15;4.78;;;11.60;84.20;;;;;;5056964;28;20502;-43
2022/02/18 06:44:36;;;;;;;20.52;4.85;;;11.50;82.50;;;;;;5057528;28;20024;-45
2022/02/18 06:47:02;;;;;;;18.27;5.20;;;11.50;83.60;;;;;;5056968;28;20104;-44
2022/02/18 06:49:28;;;;;;;26.55;5.45;;;11.40;83.50;;;;;;5057595;28;20021;-47
2022/02/18 06:51:57;;;;;;;26.95;6.75;;;11.40;83.50;;;;;;5055567;28;20029;-44
2022/02/18 06:54:26;;;;;;;22.13;5.50;;;11.40;83.40;;;;;;5057171;28;20029;-44
2022/02/18 06:56:54;;;;;;;22.63;5.47;;;11.30;81.60;;;;;;5056780;28;20095;-43
2022/02/18 06:59:20;;;;;;;20.10;4.63;;;11.30;82.20;;;;;;5056903;28;20049;-44
2022/02/18 07:01:54;;;;;;;27.38;5.43;;;11.30;82.10;;;;;;5056891;28;20473;-43
2022/02/18 07:04:24;;;;;;;29.05;5.28;;;11.30;82.50;;;;;;5056893;28;20040;-44
2022/02/18 07:06:50;;;;;;;23.92;5.90;;;11.20;81.90;;;;;;5056894;28;20056;-43
2022/02/18 07:09:16;;;;;;;22.27;5.30;;;11.20;82.20;;;;;;5056767;28;20025;-45
2022/02/18 07:11:42;;;;;;;25.58;5.72;;;11.20;80.50;;;;;;5056723;28;20021;-43
2022/02/18 07:14:09;;;;;;;31.73;5.53;;;11.20;79.60;;;;;;5056928;28;20071;-44
2022/02/18 07:16:38;;;;;;;27.65;5.53;;;11.20;79.10;;;;;;5056653;28;20473;-44
2022/02/18 07:19:04;;;;;;;16.33;4.97;;;11.10;79.20;;;;;;5056502;28;20477;-45
2022/02/18 07:21:30;;;;;;;17.40;5.05;;;11.10;78.20;;;;;;5056617;28;20055;-45
2022/02/18 07:23:56;;;;;;;14.55;3.97;;;11.10;78.00;;;;;;5056677;28;20033;-45
2022/02/18 07:26:21;;;;;;;24.40;5.75;;;11.10;77.00;;;;;;5057059;28;20029;-43
2022/02/18 07:28:47;;;;;;;22.48;6.25;;;11.10;78.00;;;;;;5056652;28;20025;-44
2022/02/18 07:31:13;;;;;;;19.52;4.78;;;11.10;78.40;;;;;;5057550;28;20037;-43
2022/02/18 07:33:39;;;;;;;17.92;5.90;;;11.10;77.80;;;;;;5060638;28;20028;-43
2022/02/18 07:36:05;;;;;;;22.17;5.95;;;11.10;77.10;;;;;;5060180;28;20052;-44
2022/02/18 07:38:30;;;;;;;24.35;4.90;;;11.00;77.50;;;;;;5058854;28;20052;-47
2022/02/18 07:40:56;;;;;;;24.50;6.15;;;11.00;77.60;;;;;;5060040;28;20503;-46
2022/02/18 07:43:22;;;;;;;19.58;4.82;;;11.00;77.00;;;;;;5060212;28;20495;-44
2022/02/18 07:45:48;;;;;;;30.25;6.57;;;11.00;77.40;;;;;;5059919;28;20024;-45
2022/02/18 07:48:13;;;;;;;24.85;6.32;;;11.00;76.80;;;;;;5060101;28;20385;-44
2022/02/18 07:50:39;;;;;;;27.05;6.18;;;11.10;77.40;;;;;;5060010;28;20057;-44
2022/02/18 07:53:05;;;;;;;26.77;6.38;;;11.10;77.30;;;;;;5060023;28;20100;-44
2022/02/18 07:55:31;;;;;;;27.27;6.15;;;11.00;77.30;;;;;;5060164;28;20048;-44
2022/02/18 07:57:56;;;;;;;25.38;7.13;;;11.10;76.50;;;;;;5059770;28;20017;-44
2022/02/18 08:00:22;;;;;;;37.10;9.15;;;11.00;76.90;;;;;;5059650;28;20048;-45
2022/02/18 08:02:49;;;;;;;35.55;9.02;;;11.10;77.40;;;;;;5059901;28;20025;-46
2022/02/18 08:05:16;;;;;;;33.13;7.28;;;11.00;77.00;;;;;;5059731;28;20056;-44
2022/02/18 08:07:42;;;;;;;22.52;7.35;;;11.00;76.70;;;;;;5059669;28;20028;-47
2022/02/18 08:10:08;;;;;;;22.02;6.82;;;11.00;76.80;;;;;;5059466;28;20664;-44
2022/02/18 08:12:34;;;;;;;25.65;5.43;;;11.10;77.30;;;;;;5059600;28;20075;-45
2022/02/18 08:15:00;;;;;;;24.45;5.60;;;11.10;76.10;;;;;;5059601;28;20025;-45
2022/02/18 08:17:33;;;;;;;27.98;5.85;;;11.00;76.50;;;;;;5059546;28;20446;-44
2022/02/18 08:19:59;;;;;;;22.33;4.90;;;11.00;76.60;;;;;;5059414;28;20100;-44
2022/02/18 08:22:27;;;;;;;30.58;9.73;;;11.10;77.00;;;;;;5058883;28;20073;-44
2022/02/18 08:24:55;;;;;;;21.38;5.30;;;11.10;77.90;;;;;;5059258;28;20079;-44
2022/02/18 08:27:21;;;;;;;22.27;6.22;;;11.10;77.60;;;;;;5059431;28;20025;-45
2022/02/18 08:29:47;;;;;;;28.77;7.35;;;11.10;78.20;;;;;;5058266;28;21203;-44
2022/02/18 08:32:12;;;;;;;24.60;5.43;;;11.10;77.80;;;;;;5057856;28;20045;-45
2022/02/18 08:34:38;;;;;;;22.38;5.90;;;11.10;77.80;;;;;;5059300;28;20396;-45
2022/02/18 08:37:04;;;;;;;20.60;5.03;;;11.10;77.90;;;;;;5059213;28;20105;-45
2022/02/18 08:39:30;;;;;;;24.30;6.32;;;11.10;78.30;;;;;;5059246;28;20338;-44
2022/02/18 08:41:56;;;;;;;25.80;5.75;;;11.10;77.70;;;;;;5058904;28;20035;-44
2022/02/18 08:44:22;;;;;;;28.77;6.03;;;11.10;77.60;;;;;;5057239;28;20036;-46
2022/02/18 08:46:48;;;;;;;21.27;4.32;;;11.00;77.00;;;;;;5057125;28;20029;-43
2022/02/18 08:49:14;;;;;;;23.85;4.95;;;11.10;77.10;;;;;;5058508;28;20416;-45
2022/02/18 08:51:40;;;;;;;22.38;5.57;;;11.00;76.70;;;;;;5058509;28;20076;-45
2022/02/18 08:54:06;;;;;;;21.42;5.13;;;11.00;76.70;;;;;;5058525;28;20036;-44
2022/02/18 08:56:33;;;;;;;23.58;4.68;;;11.00;77.20;;;;;;5058715;28;20104;-44
2022/02/18 08:58:58;;;;;;;21.95;4.80;;;11.00;77.00;;;;;;5056533;28;20075;-46
2022/02/18 09:01:26;;;;;;;20.52;4.47;;;11.00;77.30;;;;;;5056695;28;20020;-44
2022/02/18 09:03:52;;;;;;;16.90;4.25;;;11.00;77.20;;;;;;5056437;28;20029;-46
2022/02/18 09:06:18;;;;;;;25.42;5.45;;;11.00;76.80;;;;;;5054725;28;20021;-44
2022/02/18 09:08:43;;;;;;;19.10;6.30;;;11.00;76.80;;;;;;5057541;28;20941;-44
2022/02/18 09:11:09;;;;;;;23.10;6.22;;;11.00;77.10;;;;;;5057588;28;20032;-44
2022/02/18 09:13:35;;;;;;;19.33;5.20;;;11.10;77.50;;;;;;5057972;28;20021;-44
2022/02/18 09:16:01;;;;;;;22.13;5.05;;;11.00;77.40;;;;;;5058233;28;20092;-44
2022/02/18 09:18:26;;;;;;;24.33;5.63;;;11.10;76.60;;;;;;5058172;28;20544;-44
2022/02/18 09:20:52;;;;;;;21.45;6.18;;;11.10;77.10;;;;;;5057674;28;20424;-43
2022/02/18 09:23:18;;;;;;;29.13;6.55;;;11.10;77.80;;;;;;5058019;28;20029;-44
2022/02/18 09:25:44;;;;;;;27.20;5.45;;;11.20;78.00;;;;;;5058117;28;20052;-44
2022/02/18 09:28:10;;;;;;;20.50;4.80;;;11.20;75.90;;;;;;5058159;28;20545;-44
2022/02/18 09:30:45;;;;;;;31.90;7.60;;;11.20;76.40;;;;;;5058223;28;20075;-44
2022/02/18 09:33:15;;;;;;;;;;;11.20;76.20;;;;;;5058078;28;20021;-44
2022/02/18 09:35:42;;;;;;;31.00;6.47;;;11.20;75.50;;;;;;5057878;28;19982;-45
2022/02/18 09:38:08;;;;;;;23.35;6.32;;;11.20;75.90;;;;;;5057815;28;20488;-44
2022/02/18 09:40:35;;;;;;;25.05;6.93;;;11.20;75.40;;;;;;5057994;28;20047;-44
2022/02/18 09:43:02;;;;;;;28.38;6.38;;;11.20;76.20;;;;;;5057913;28;20032;-45
2022/02/18 09:45:28;;;;;;;30.33;6.43;;;11.20;75.90;;;;;;5058105;28;20365;-44
2022/02/18 09:47:55;;;;;;;22.15;6.13;;;11.30;76.40;;;;;;5058066;28;20048;-44
2022/02/18 09:50:22;;;;;;;26.88;6.47;;;11.30;76.70;;;;;;5057607;28;20052;-44
2022/02/18 09:52:48;;;;;;;30.60;6.82;;;11.30;76.00;;;;;;5056188;28;20029;-44
2022/02/18 09:55:13;;;;;;;22.42;5.28;;;11.30;76.10;;;;;;5056865;28;20025;-45
2022/02/18 09:57:43;;;;;;;18.63;4.22;;;11.40;74.90;;;;;;5057400;28;20029;-44
2022/02/18 10:00:10;;;;;;;19.33;4.00;;;11.30;74.20;;;;;;5057206;28;20116;-44
2022/02/18 10:02:37;;;;;;;13.38;3.03;;;11.30;73.70;;;;;;5057580;28;20033;-45
2022/02/18 10:05:04;;;;;;;11.82;2.70;;;11.30;73.70;;;;;;5057400;28;20380;-44
2022/02/18 10:07:31;;;;;;;14.27;3.38;;;11.20;73.20;;;;;;5057694;28;20017;-45
2022/02/18 10:09:57;;;;;;;11.50;3.88;;;11.10;73.00;;;;;;5057708;28;20048;-44
2022/02/18 10:12:43;;;;;;;16.02;3.78;;;11.10;72.20;;;;;;5057126;28;20373;-44
2022/02/18 10:15:12;;;;;;;17.02;3.97;;;11.00;73.00;;;;;;5057406;28;20104;-45
2022/02/18 10:17:40;;;;;;;11.27;3.25;;;11.00;73.00;;;;;;5057367;28;20096;-44
2022/02/18 10:20:16;;;;;;;17.10;3.60;;;11.00;72.40;;;;;;5057352;28;20104;-46
2022/02/18 10:22:55;;;;;;;16.98;4.30;;;11.00;73.00;;;;;;5055492;28;20049;-44
2022/02/18 10:25:34;;;;;;;19.20;4.35;;;11.00;73.80;;;;;;5057143;28;20032;-44
2022/02/18 10:28:02;;;;;;;19.77;4.70;;;11.00;74.10;;;;;;5057372;28;20504;-44
2022/02/18 10:30:30;;;;;;;22.17;4.88;;;11.00;73.30;;;;;;5057162;28;20021;-44
2022/02/18 10:33:13;;;;;;;20.33;4.90;;;11.00;72.90;;;;;;5057242;28;20046;-44
2022/02/18 10:35:40;;;;;;;17.45;4.65;;;11.10;72.60;;;;;;5057220;28;20025;-44
2022/02/18 10:38:08;;;;;;;18.75;4.63;;;11.10;72.90;;;;;;5057026;28;20096;-46
2022/02/18 10:40:41;;;;;;;17.30;4.70;;;11.10;72.50;;;;;;5057194;28;20029;-44
2022/02/18 10:43:10;;;;;;;20.10;4.40;;;11.20;73.20;;;;;;5057078;28;20059;-45
2022/02/18 10:45:49;;;;;;;17.35;5.03;;;11.20;73.20;;;;;;5056306;28;20420;-44
2022/02/18 10:48:14;;;;;;;24.70;4.32;;;11.30;73.30;;;;;;5057326;28;20117;-46
2022/02/18 10:50:42;;;;;;;21.42;4.47;;;11.40;72.80;;;;;;5056875;28;20056;-45
2022/02/18 10:53:20;;;;;;;18.85;4.80;;;11.50;73.40;;;;;;5056927;28;20032;-46
2022/02/18 10:55:49;;;;;;;18.67;3.70;;;11.50;73.50;;;;;;5057119;28;20021;-45
2022/02/18 10:58:20;;;;;;;17.92;4.45;;;11.50;72.80;;;;;;5056988;28;20021;-44
2022/02/18 11:00:47;;;;;;;18.88;4.68;;;11.60;72.40;;;;;;5056528;28;20404;-50
2022/02/18 11:03:25;;;;;;;16.98;4.32;;;11.60;72.60;;;;;;5056163;28;20079;-51
2022/02/18 11:05:52;;;;;;;19.33;4.60;;;11.70;72.30;;;;;;5057426;28;20025;-46
2022/02/18 11:08:31;;;;;;;19.40;4.07;;;11.70;72.90;;;;;;5060785;28;20082;-46
2022/02/18 11:11:07;;;;;;;16.58;4.18;;;11.70;72.80;;;;;;5060525;28;20077;-47
2022/02/18 11:13:35;;;;;;;18.38;4.30;;;11.80;72.00;;;;;;5060589;28;20028;-48
2022/02/18 11:16:02;;;;;;;17.83;4.70;;;11.80;72.10;;;;;;5060486;28;20024;-48
2022/02/18 11:18:29;;;;;;;17.08;4.47;;;11.80;72.40;;;;;;5060473;28;20032;-46
2022/02/18 11:20:56;;;;;;;20.13;5.55;;;11.90;72.90;;;;;;5060256;28;20128;-48
2022/02/18 11:23:21;;;;;;;18.85;6.95;;;12.00;72.60;;;;;;5060638;28;20060;-47
2022/02/18 11:25:47;;;;;;;17.25;4.60;;;12.20;73.40;;;;;;5060479;28;20033;-45
2022/02/18 11:28:13;;;;;;;20.15;5.82;;;12.30;71.40;;;;;;5060589;28;20025;-45
2022/02/18 11:30:47;;;;;;;18.13;5.05;;;12.50;71.20;;;;;;5060020;28;20021;-45
2022/02/18 11:33:35;;;;;;;16.05;3.70;;;12.60;71.50;;;;;;5060411;28;20021;-46
2022/02/18 11:36:22;;;;;;;20.67;6.18;;;12.80;71.00;;;;;;5060514;28;20350;-45
2022/02/18 11:39:13;;;;;;;16.90;6.22;;;13.00;72.20;;;;;;5060515;28;20058;-45
2022/02/18 11:42:24;;;;;;;20.05;4.43;;;13.20;70.50;;;;;;5060307;28;20028;-46
2022/02/18 11:44:50;;;;;;;19.30;5.93;;;13.40;69.60;;;;;;5059596;28;20033;-47
2022/02/18 11:47:19;;;;;;;19.25;6.45;;;13.60;70.50;;;;;;5059884;28;20108;-45
2022/02/18 11:49:47;;;;;;;17.75;5.18;;;13.70;70.50;;;;;;5059963;28;20035;-46
2022/02/18 11:52:15;;;;;;;20.33;5.50;;;14.00;70.10;;;;;;5059892;28;20481;-49
2022/02/18 11:54:42;;;;;;;22.55;6.78;;;14.10;69.80;;;;;;5059644;28;20025;-47
2022/02/18 11:57:13;;;;;;;17.33;6.25;;;14.30;66.90;;;;;;5059943;28;20031;-44
2022/02/18 11:59:56;;;;;;;23.02;8.30;;;14.40;69.10;;;;;;5059952;28;20024;-50
2022/02/18 12:02:40;;;;;;;25.42;7.95;;;14.50;68.90;;;;;;5059646;28;20033;-51
2022/02/18 12:05:17;;;;;;;19.13;5.00;;;14.60;68.30;;;;;;5060435;28;20036;-49
2022/02/18 12:07:46;;;;;;;19.33;6.53;;;14.70;66.60;;;;;;5060367;28;20037;-45
2022/02/18 12:10:29;;;;;;;28.20;10.70;;;14.90;67.40;;;;;;5059719;28;20111;-47
2022/02/18 12:13:04;;;;;;;20.65;4.72;;;15.00;67.00;;;;;;5059959;28;20477;-47
2022/02/18 12:15:33;;;;;;;18.27;5.85;;;15.10;65.90;;;;;;5059801;28;20029;-48
2022/02/18 12:18:04;;;;;;;20.00;5.53;;;15.20;66.20;;;;;;5059024;28;20017;-45
2022/02/18 12:20:35;;;;;;;19.58;6.05;;;15.30;66.40;;;;;;5059386;28;20029;-48
2022/02/18 12:23:31;;;;;;;22.95;8.50;;;15.40;66.60;;;;;;5059287;28;20146;-48
2022/02/18 12:26:19;;;;;;;22.42;7.72;;;15.50;67.00;;;;;;5058627;28;20033;-50
2022/02/18 12:28:46;;;;;;;23.80;9.65;;;15.60;67.50;;;;;;5059192;28;20039;-50
2022/02/18 12:31:12;;;;;;;16.20;5.88;;;15.60;66.00;;;;;;5058994;28;20017;-46
2022/02/18 12:33:39;;;;;;;15.73;5.72;;;15.60;65.50;;;;;;5059081;28;20025;-50
2022/02/18 12:36:16;;;;;;;17.15;6.00;;;15.50;64.70;;;;;;5058997;28;20025;-44
2022/02/18 12:38:44;;;;;;;16.35;6.10;;;15.50;65.70;;;;;;5059085;28;20029;-46
2022/02/18 12:41:14;;;;;;;13.60;5.30;;;15.40;64.80;;;;;;5058823;28;20025;-50